PDT,Max TemperatureF,Mean TemperatureF,Min TemperatureF,Max Dew PointF,MeanDew PointF,Min DewpointF,Max Humidity, Mean Humidity, Min Humidity, Max Sea Level PressureIn, Mean Sea Level PressureIn, Min Sea Level PressureIn, Max VisibilityMiles, Mean VisibilityMiles, Min VisibilityMiles, Max Wind SpeedMPH, Mean Wind SpeedMPH, Max Gust SpeedMPH,PrecipitationIn, CloudCover, Events, WindDirDegrees
2013-8-1,84,72,60,57,50,41,78,55,31,29.94,29.88,29.83,10,10,7,20,6,26,0.24,4,Rain-Thunderstorm,274
2013-8-2,74,67,59,59,56,53,97,73,49,30.04,29.99,29.91,10,9,2,12,4,22,0.07,5,Rain,45
2013-8-3,82,70,58,57,54,53,87,63,39,30.09,30.04,29.98,10,10,10,9,2,14,0.00,4,,119
2013-8-4,91,75,58,55,50,42,84,51,18,30.04,29.96,29.87,10,10,10,10,4,14,0.00,0,,79
2013-8-5,94,78,62,52,47,42,67,42,17,29.95,29.89,29.81,10,10,10,16,4,22,T,0,,288
2013-8-6,98,81,64,53,46,38,63,39,14,29.95,29.87,29.80,10,10,10,10,3,14,0.00,0,,356
2013-8-7,98,79,59,51,41,33,58,35,11,29.92,29.85,29.78,10,10,10,12,3,23,0.00,0,,235
2013-8-8,97,79,61,46,40,35,41,27,13,29.93,29.84,29.76,10,10,10,13,3,16,0.00,0,,276
2013-8-9,98,82,66,50,44,41,51,34,16,29.86,29.78,29.70,10,10,6,46,6,60,T,0,Thunderstorm,196
2013-8-10,96,82,67,51,49,46,49,36,22,29.90,29.84,29.75,10,10,10,15,5,20,0.00,0,,292
2013-8-11,93,80,67,57,52,48,58,42,26,29.95,29.90,29.85,10,10,10,33,6,43,T,1,Rain-Thunderstorm,226
2013-8-12,95,81,66,55,50,46,61,41,20,29.96,29.91,29.84,10,10,10,21,5,25,T,1,,228
2013-8-13,96,82,67,52,47,41,51,34,16,30.02,29.94,29.87,10,10,10,9,4,16,0.00,0,,268
2013-8-14,104,85,65,52,46,38,58,35,11,29.92,29.84,29.74,10,10,10,16,5,22,0.00,0,,297
2013-8-15,100,84,67,48,44,41,48,31,14,29.92,29.84,29.75,10,10,10,14,4,18,0.00,0,,241
2013-8-16,96,82,67,60,51,46,54,38,22,29.97,29.91,29.85,10,10,10,16,6,21,0.02,0,Thunderstorm,233
2013-8-17,93,80,67,64,57,50,87,57,27,30.00,29.95,29.86,10,10,8,15,4,20,0.03,2,Thunderstorm,320
2013-8-18,92,78,64,52,47,42,56,38,20,30.04,29.97,29.91,10,10,10,15,5,20,0.00,0,,312
2013-8-19,94,78,61,49,44,41,55,36,17,30.01,29.95,29.87,10,10,10,21,5,29,0.00,0,,318
2013-8-20,89,75,61,47,41,33,52,35,17,30.03,29.97,29.92,10,10,10,13,4,18,0.00,0,,269
2013-8-21,94,75,56,42,34,25,46,28,10,30.04,29.96,29.88,10,10,10,10,3,12,0.00,0,,222
2013-8-22,86,75,63,61,43,28,76,48,19,29.93,29.86,29.75,10,10,8,29,5,41,0.09,2,Rain-Thunderstorm,178
2013-8-23,88,75,62,61,55,46,84,57,29,29.84,29.79,29.73,10,10,10,15,4,21,0.00,1,,266
2013-8-24,89,73,57,52,48,45,72,48,23,29.83,29.77,29.70,10,10,10,20,5,25,0.00,0,,280
2013-8-25,90,75,60,55,49,46,69,46,23,29.92,29.82,29.70,10,10,9,28,5,37,0.05,1,Rain-Thunderstorm,285
2013-8-26,89,73,56,57,52,45,93,59,24,29.97,29.90,29.81,10,10,10,15,5,20,0.00,0,,258
2013-8-27,92,76,59,51,46,41,64,41,18,29.95,29.84,29.71,10,10,10,9,2,26,0.00,0,,179
2013-8-28,94,78,62,51,46,43,60,39,17,29.83,29.79,29.71,10,10,10,15,5,24,0.00,0,,292
2013-8-29,93,78,62,51,48,44,56,38,20,29.99,29.88,29.81,10,10,10,18,4,24,0.00,0,,308
2013-8-30,87,76,64,52,49,46,53,42,30,30.11,30.03,29.98,10,10,10,15,4,18,0.00,1,,298
2013-8-31,95,77,58,50,46,40,62,39,16,30.06,29.94,29.81,10,10,10,9,3,13,0.00,0,,86